createdAt,value
2023-01-17T00:06:21.676Z,150.24409
2023-01-17T00:21:24.045Z,43.61925
2023-01-17T00:36:26.257Z,6.78522
2023-01-17T00:51:28.585Z,0.96932
2023-01-17T01:06:30.993Z,0
2023-01-17T01:21:33.423Z,0
2023-01-17T01:36:35.683Z,0
2023-01-17T01:51:38.023Z,0
2023-01-17T02:06:40.553Z,0
2023-01-17T02:21:43.217Z,0
2023-01-17T02:36:45.633Z,0
2023-01-17T02:51:48.010Z,0
2023-01-17T03:06:50.232Z,0
2023-01-17T03:21:52.658Z,0.96932
2023-01-17T03:36:55.093Z,0.96932
2023-01-17T03:51:57.314Z,0.96932
2023-01-17T04:06:59.871Z,0.96932
2023-01-17T04:22:02.179Z,0.96932
2023-01-17T04:37:04.371Z,0.96932
2023-01-17T04:52:06.786Z,0
2023-01-17T05:07:09.105Z,0
2023-01-17T05:22:11.317Z,0
2023-01-17T05:37:13.539Z,0
2023-01-17T05:52:15.777Z,0
2023-01-17T06:07:17.943Z,0
2023-01-17T06:22:20.192Z,0
2023-01-17T06:37:22.454Z,0
2023-01-17T06:52:24.668Z,0
2023-01-17T07:07:27.206Z,0
2023-01-17T07:22:29.474Z,0
2023-01-17T07:37:31.825Z,0
2023-01-17T07:52:34.048Z,0
2023-01-17T08:07:36.493Z,0
2023-01-17T08:22:39.050Z,0
2023-01-17T08:37:41.355Z,0
2023-01-17T08:52:43.681Z,0
2023-01-17T09:07:47.629Z,0
2023-01-17T09:22:49.972Z,0
2023-01-17T09:37:52.206Z,0
2023-01-17T09:52:54.420Z,0
2023-01-17T10:07:56.664Z,0
2023-01-17T10:22:58.903Z,0
2023-01-17T10:38:01.280Z,0
2023-01-17T10:53:03.669Z,0
2023-01-17T11:08:05.897Z,0
2023-01-17T11:23:08.141Z,0
2023-01-17T11:38:10.374Z,0
2023-01-17T11:53:12.741Z,0
2023-01-17T12:08:14.941Z,0
2023-01-17T12:23:17.218Z,0
2023-01-17T12:38:31.728Z,0
2023-01-17T12:53:34.673Z,0
2023-01-17T13:08:36.960Z,0
2023-01-17T13:23:39.167Z,0
2023-01-17T13:38:41.428Z,0
2023-01-17T13:53:43.687Z,0
2023-01-17T14:08:45.927Z,0
2023-01-17T14:23:48.220Z,0
2023-01-17T14:38:50.454Z,0
2023-01-17T14:53:52.684Z,0
2023-01-17T15:08:54.935Z,0.96932
2023-01-17T15:23:57.291Z,3.87727
2023-01-17T15:38:59.670Z,26.17155
2023-01-17T15:54:02.059Z,95.96236
2023-01-17T16:09:04.291Z,188.04744
2023-01-17T16:24:06.498Z,314.05862
2023-01-17T16:39:08.750Z,409.05167
2023-01-17T16:54:11.096Z,640.71832
2023-01-17T17:09:13.345Z,718.26367
2023-01-17T17:24:15.786Z,899.52594
2023-01-17T17:39:18.019Z,1344.44226
2023-01-17T17:54:20.336Z,1535.39771
2023-01-17T18:09:22.691Z,2062.70605
2023-01-17T18:24:24.946Z,2047.1969
2023-01-17T18:39:27.272Z,2028.77991
2023-01-17T18:54:29.555Z,2375.79517
2023-01-17T19:09:31.825Z,2294.37256
2023-01-17T19:24:34.143Z,2587.10645
2023-01-17T19:39:36.502Z,2510.53027
2023-01-17T19:54:38.872Z,2602.61548
2023-01-17T20:09:41.130Z,2786.78564
2023-01-17T20:24:43.556Z,3082.42725
2023-01-17T20:39:45.864Z,3071.76465
2023-01-17T20:54:48.113Z,3104.72144
2023-01-17T21:09:50.435Z,2969.01709
2023-01-17T21:24:52.772Z,2747.0437
2023-01-17T21:39:55.103Z,2326.36011
2023-01-17T21:54:57.374Z,2082.09229
2023-01-17T22:09:59.775Z,1929.90955
2023-01-17T22:25:02.197Z,1466.57617
2023-01-17T22:40:05.253Z,1183.53577
2023-01-17T22:55:07.748Z,916.00427
2023-01-17T23:10:10.016Z,632.96381
2023-01-17T23:25:12.532Z,447.82431
2023-01-17T23:40:14.725Z,278.19391
2023-01-17T23:55:16.952Z,154.12135
